Time;durP1;ratioP1;P1;durP2;ratioP2;P2;SDS_P1;SDS_P2;PMS_P1;PMS_P2;Temp;Humidity;BMP_temperature;BMP_pressure;BME280_temperature;BME280_humidity;BME280_pressure;Samples;Min_cycle;Max_cycle;Signal;HPM_P1;HPM_P2
2021/01/13 00:01:46;;;;;;;8.15;6.30;;;1.70;99.90;;;;;;5013923;28;20080;-75
2021/01/13 00:04:12;;;;;;;8.30;5.65;;;1.70;99.90;;;;;;5031413;28;20024;-75
2021/01/13 00:06:37;;;;;;;7.28;6.15;;;1.70;99.90;;;;;;5031444;28;20025;-75
2021/01/13 00:09:04;;;;;;;9.48;7.45;;;1.70;99.90;;;;;;5013265;28;20029;-74
2021/01/13 00:11:30;;;;;;;7.72;6.38;;;1.60;99.90;;;;;;5030937;28;20033;-75
2021/01/13 00:13:56;;;;;;;9.95;8.27;;;1.60;99.90;;;;;;5030532;28;20101;-75
2021/01/13 00:16:22;;;;;;;16.02;8.20;;;1.60;99.90;;;;;;5031068;28;20021;-75
2021/01/13 00:18:49;;;;;;;12.02;7.97;;;1.60;99.90;;;;;;5012831;28;20412;-75
2021/01/13 00:21:15;;;;;;;8.73;6.50;;;1.50;99.90;;;;;;5013538;28;20380;-75
2021/01/13 00:23:44;;;;;;;7.85;7.00;;;1.50;99.90;;;;;;5013513;28;20057;-75
2021/01/13 00:26:10;;;;;;;9.95;7.97;;;1.50;99.90;;;;;;5030977;28;20028;-75
2021/01/13 00:28:36;;;;;;;9.02;7.50;;;1.50;99.90;;;;;;5013288;28;20548;-75
2021/01/13 00:31:01;;;;;;;13.52;7.35;;;1.50;99.90;;;;;;4997038;28;20033;-75
2021/01/13 00:33:27;;;;;;;10.35;7.43;;;1.40;99.90;;;;;;5030799;28;20366;-75
2021/01/13 00:35:53;;;;;;;12.80;8.80;;;1.50;99.90;;;;;;5030935;28;20389;-75
2021/01/13 00:38:19;;;;;;;10.07;7.63;;;1.50;99.90;;;;;;5031082;28;20022;-75
2021/01/13 00:40:44;;;;;;;13.55;8.02;;;1.50;99.90;;;;;;5030730;28;20022;-75
2021/01/13 00:43:10;;;;;;;8.65;7.00;;;1.50;99.90;;;;;;5030911;28;20028;-75
2021/01/13 00:45:36;;;;;;;8.80;6.65;;;1.50;99.90;;;;;;5012707;28;20026;-74
2021/01/13 00:48:02;;;;;;;7.93;7.13;;;1.40;99.90;;;;;;5030937;28;20050;-75
2021/01/13 00:50:27;;;;;;;9.38;6.72;;;1.40;99.90;;;;;;4996466;28;20029;-75
2021/01/13 00:52:53;;;;;;;10.88;7.32;;;1.30;99.90;;;;;;5030897;28;20021;-75
2021/01/13 00:55:19;;;;;;;10.43;7.22;;;1.30;99.90;;;;;;5012980;28;20057;-75
2021/01/13 00:57:48;;;;;;;8.30;6.68;;;1.20;99.90;;;;;;5013475;28;20025;-75
2021/01/13 01:00:14;;;;;;;12.30;7.32;;;1.30;99.90;;;;;;5030398;28;20484;-75
2021/01/13 01:02:40;;;;;;;9.95;8.13;;;1.40;99.90;;;;;;5030909;28;20148;-75
2021/01/13 01:05:06;;;;;;;16.42;7.85;;;1.40;99.90;;;;;;5012822;28;20045;-75
2021/01/13 01:07:32;;;;;;;9.50;7.47;;;1.30;99.90;;;;;;5031321;28;20032;-75
2021/01/13 01:09:57;;;;;;;11.07;7.72;;;1.30;99.90;;;;;;5012958;28;20033;-75
2021/01/13 01:12:23;;;;;;;10.82;7.55;;;1.30;99.90;;;;;;5013314;28;20026;-75
2021/01/13 01:14:49;;;;;;;8.90;7.65;;;1.30;99.90;;;;;;5030327;28;20041;-75
2021/01/13 01:17:15;;;;;;;13.43;7.75;;;1.20;99.90;;;;;;5030567;28;20032;-75
2021/01/13 01:19:41;;;;;;;10.02;8.05;;;1.30;99.90;;;;;;5030448;28;20026;-74
2021/01/13 01:22:06;;;;;;;11.30;7.75;;;1.40;99.90;;;;;;5030642;28;20017;-73
2021/01/13 01:24:32;;;;;;;8.32;6.53;;;1.20;99.90;;;;;;5033291;28;20472;-73
2021/01/13 01:26:58;;;;;;;9.15;7.60;;;1.10;99.90;;;;;;5034139;28;20488;-73
2021/01/13 01:29:24;;;;;;;9.27;7.35;;;1.10;99.90;;;;;;5016700;28;20030;-73
2021/01/13 01:31:51;;;;;;;15.48;7.40;;;1.30;99.90;;;;;;5016400;28;20109;-73
2021/01/13 01:34:17;;;;;;;11.13;8.13;;;1.20;99.90;;;;;;5034025;28;20030;-73
2021/01/13 01:36:43;;;;;;;13.57;10.27;;;1.30;99.90;;;;;;5034004;28;20061;-73
2021/01/13 01:39:09;;;;;;;8.88;6.82;;;1.40;99.90;;;;;;5016324;28;20033;-73
2021/01/13 01:41:35;;;;;;;10.02;7.35;;;1.30;99.90;;;;;;5016351;28;20025;-73
2021/01/13 01:44:01;;;;;;;12.07;7.65;;;1.30;99.90;;;;;;5034191;28;20487;-73
2021/01/13 01:46:30;;;;;;;11.77;7.50;;;1.30;99.90;;;;;;5033709;28;20053;-73
2021/01/13 01:49:00;;;;;;;10.18;7.68;;;1.30;99.90;;;;;;5034027;28;20109;-73
2021/01/13 01:51:32;;;;;;;10.50;8.02;;;1.40;99.90;;;;;;5033672;28;20044;-73
2021/01/13 01:54:10;;;;;;;11.75;9.07;;;1.30;99.90;;;;;;5033782;28;20076;-73
2021/01/13 01:56:45;;;;;;;13.68;9.07;;;1.20;99.90;;;;;;5015872;28;20021;-73
2021/01/13 01:59:13;;;;;;;10.35;8.07;;;1.20;99.90;;;;;;5016007;28;20425;-73
2021/01/13 02:01:44;;;;;;;18.10;8.48;;;1.20;99.90;;;;;;5015962;28;20036;-73
2021/01/13 02:04:40;;;;;;;14.80;9.05;;;1.10;99.90;;;;;;5033528;28;20511;-73
2021/01/13 02:07:27;;;;;;;12.82;8.88;;;1.20;99.90;;;;;;5031896;28;20480;-73
2021/01/13 02:09:53;;;;;;;13.40;8.95;;;1.10;99.90;;;;;;5015952;28;20180;-73
2021/01/13 02:12:26;;;;;;;15.35;9.27;;;1.10;99.90;;;;;;5015549;28;20527;-73
2021/01/13 02:14:52;;;;;;;13.75;9.23;;;1.10;99.90;;;;;;5033400;28;20036;-73
2021/01/13 02:17:26;;;;;;;14.23;9.13;;;1.10;99.90;;;;;;5033169;28;20037;-73
2021/01/13 02:20:01;;;;;;;11.15;8.02;;;1.20;99.90;;;;;;5015568;28;20026;-73
2021/01/13 02:23:04;;;;;;;12.60;8.57;;;1.20;99.90;;;;;;5033136;28;20030;-73
2021/01/13 02:26:21;;;;;;;13.73;7.93;;;1.40;99.90;;;;;;5020134;28;20400;-73
2021/01/13 02:28:58;;;;;;;16.30;8.75;;;1.10;99.90;;;;;;5032982;28;20034;-73
2021/01/13 02:31:45;;;;;;;14.30;8.95;;;1.00;99.90;;;;;;5033243;28;20104;-73
2021/01/13 02:34:40;;;;;;;12.68;8.80;;;1.00;99.90;;;;;;5032822;28;20029;-73
2021/01/13 02:37:36;;;;;;;13.93;9.57;;;1.10;99.90;;;;;;5021611;28;20037;-73
2021/01/13 02:40:22;;;;;;;13.65;8.52;;;1.10;99.90;;;;;;5032003;28;20036;-72
2021/01/13 02:42:59;;;;;;;10.68;7.93;;;1.00;99.90;;;;;;5013283;28;20025;-73
2021/01/13 02:45:27;;;;;;;16.83;8.90;;;1.00;99.90;;;;;;5012696;28;20045;-72
2021/01/13 02:47:58;;;;;;;15.93;9.43;;;1.00;99.90;;;;;;5013256;28;20373;-72
2021/01/13 02:50:25;;;;;;;;;;;1.00;99.90;;;;;;5013393;28;20542;-72
2021/01/13 02:53:09;;;;;;;10.70;7.28;;;1.00;99.90;;;;;;5013105;28;19944;-72
2021/01/13 02:55:48;;;;;;;16.92;8.88;;;1.00;99.90;;;;;;5012698;28;20034;-72
2021/01/13 02:58:26;;;;;;;13.95;8.38;;;0.90;99.90;;;;;;5013073;28;20033;-72
2021/01/13 03:00:55;;;;;;;12.95;8.15;;;0.80;99.90;;;;;;5012989;28;20030;-72
2021/01/13 03:03:22;;;;;;;18.77;10.35;;;0.50;99.90;;;;;;5003774;28;20116;-72
2021/01/13 03:05:49;;;;;;;15.50;10.45;;;0.30;99.90;;;;;;5031262;28;20061;-72
2021/01/13 03:08:16;;;;;;;19.55;9.45;;;0.40;99.90;;;;;;5032605;28;20104;-72
2021/01/13 03:10:47;;;;;;;14.10;9.25;;;0.60;99.90;;;;;;5014356;28;20029;-72
2021/01/13 03:13:14;;;;;;;14.18;9.00;;;0.80;99.90;;;;;;5014735;28;20125;-72
2021/01/13 03:15:40;;;;;;;13.48;8.63;;;0.80;99.90;;;;;;5029533;28;20029;-72
2021/01/13 03:18:06;;;;;;;13.93;8.48;;;0.80;99.90;;;;;;5014668;28;20048;-72
2021/01/13 03:20:59;;;;;;;16.05;8.82;;;0.70;99.90;;;;;;5022136;28;20029;-72
2021/01/13 03:23:28;;;;;;;15.95;9.38;;;0.50;99.90;;;;;;5015177;28;20034;-72
2021/01/13 03:25:58;;;;;;;15.63;9.18;;;0.40;99.90;;;;;;5017230;28;20048;-72
2021/01/13 03:28:27;;;;;;;16.33;9.05;;;0.40;99.90;;;;;;5014244;28;20047;-72
2021/01/13 03:30:55;;;;;;;14.93;8.27;;;0.50;99.90;;;;;;5031898;28;20033;-72
2021/01/13 03:33:54;;;;;;;20.00;9.60;;;0.40;99.90;;;;;;5031644;28;20022;-72
2021/01/13 03:36:49;;;;;;;16.27;9.43;;;0.40;99.90;;;;;;5031798;28;20481;-72
2021/01/13 03:39:20;;;;;;;18.63;9.90;;;0.30;99.90;;;;;;5014033;28;20370;-72
2021/01/13 03:41:55;;;;;;;19.48;9.40;;;0.30;99.90;;;;;;5031929;28;20039;-72
2021/01/13 03:44:27;;;;;;;23.92;10.40;;;0.20;99.90;;;;;;5031492;28;20626;-72
2021/01/13 03:47:10;;;;;;;23.20;9.73;;;0.40;99.90;;;;;;5031526;28;20026;-72
2021/01/13 03:49:47;;;;;;;18.58;9.90;;;0.50;99.90;;;;;;5031565;28;20034;-72
2021/01/13 03:52:14;;;;;;;15.20;9.00;;;0.60;99.90;;;;;;5031658;28;20026;-72
2021/01/13 03:54:43;;;;;;;16.50;9.60;;;0.60;99.90;;;;;;5031315;28;20030;-73
2021/01/13 03:57:09;;;;;;;16.80;9.07;;;0.60;99.90;;;;;;5013982;28;20100;-72
2021/01/13 03:59:50;;;;;;;14.32;9.35;;;0.60;99.90;;;;;;5031086;28;20036;-72
2021/01/13 04:02:18;;;;;;;20.90;9.70;;;0.70;99.90;;;;;;5031476;28;20021;-72
2021/01/13 04:04:49;;;;;;;16.13;9.73;;;0.70;99.90;;;;;;5013715;28;20293;-72
2021/01/13 04:07:15;;;;;;;19.42;9.57;;;0.50;99.90;;;;;;5013822;28;20499;-73
2021/01/13 04:09:42;;;;;;;23.42;11.23;;;0.50;99.90;;;;;;5031094;28;20435;-72
2021/01/13 04:12:16;;;;;;;13.95;9.00;;;0.60;99.90;;;;;;5031366;28;20513;-72
2021/01/13 04:14:55;;;;;;;24.08;9.55;;;0.60;99.90;;;;;;5012941;28;20056;-72
2021/01/13 04:17:22;;;;;;;15.75;8.30;;;0.60;99.90;;;;;;5031217;28;20021;-72
2021/01/13 04:19:49;;;;;;;19.85;8.73;;;0.50;99.90;;;;;;5013176;28;20049;-72
2021/01/13 04:22:19;;;;;;;23.13;9.52;;;0.60;99.90;;;;;;5031151;28;20528;-72
2021/01/13 04:24:48;;;;;;;14.60;8.90;;;0.60;99.90;;;;;;5030777;28;20105;-72
2021/01/13 04:27:19;;;;;;;19.25;9.88;;;0.60;99.90;;;;;;5013554;28;20029;-72
2021/01/13 04:29:45;;;;;;;29.83;15.20;;;0.70;99.90;;;;;;5030923;28;20497;-72
2021/01/13 04:32:12;;;;;;;24.98;12.38;;;0.70;99.90;;;;;;5031291;28;20113;-72
2021/01/13 04:34:39;;;;;;;21.70;10.60;;;0.70;99.90;;;;;;5030956;28;20492;-72
2021/01/13 04:37:07;;;;;;;22.92;11.60;;;0.60;99.90;;;;;;5031616;28;20416;-72
2021/01/13 04:39:34;;;;;;;20.40;11.63;;;0.60;99.90;;;;;;5031224;28;20473;-72
2021/01/13 04:42:05;;;;;;;28.73;11.88;;;0.80;99.90;;;;;;5031245;28;20083;-72
2021/01/13 04:44:44;;;;;;;22.35;11.82;;;0.80;99.90;;;;;;5030715;28;20029;-72
2021/01/13 04:47:11;;;;;;;19.10;11.15;;;1.00;99.90;;;;;;5031003;28;20021;-72
2021/01/13 04:49:37;;;;;;;25.92;10.88;;;1.10;99.90;;;;;;5012894;28;20022;-72
2021/01/13 04:52:18;;;;;;;38.65;11.32;;;1.20;99.90;;;;;;5031083;28;20029;-72
2021/01/13 04:54:46;;;;;;;18.52;10.68;;;1.20;99.90;;;;;;5012826;28;20021;-72
2021/01/13 04:57:30;;;;;;;31.40;10.98;;;1.10;99.90;;;;;;5013068;28;20072;-72
2021/01/13 05:00:58;;;;;;;;;;;;;;;;;;;;;
2021/01/13 05:03:47;;;;;;;20.77;10.45;;;1.10;99.90;;;;;;5021929;28;20041;-93
2021/01/13 05:07:05;;;;;;;23.60;11.77;;;1.00;99.90;;;;;;5024708;28;20092;-93
2021/01/13 05:10:03;;;;;;;34.85;13.77;;;1.10;99.90;;;;;;5010982;28;20532;-95
2021/01/13 05:12:56;;;;;;;39.47;16.90;;;1.30;99.90;;;;;;4987589;28;20038;-95
2021/01/13 05:19:54;;;;;;;;;;;;;;;;;;;;;
2021/01/13 05:27:32;;;;;;;30.23;15.15;;;0.80;99.90;;;;;;4920071;29;20060;-92
2021/01/13 05:33:27;;;;;;;32.17;16.30;;;0.70;99.90;;;;;;5021971;28;20104;-92
2021/01/13 05:43:33;;;;;;;27.25;13.23;;;0.60;99.90;;;;;;5039051;28;20521;-93
2021/01/13 05:46:39;;;;;;;26.08;13.82;;;0.80;99.90;;;;;;4974384;28;20038;-93
2021/01/13 05:53:49;;;;;;;28.23;12.20;;;0.70;99.90;;;;;;5038167;28;20528;-93
2021/01/13 05:56:19;;;;;;;23.95;12.02;;;0.80;99.90;;;;;;4999730;28;20029;-93
2021/01/13 06:03:44;;;;;;;;;;;;;;;;;;;;;
2021/01/13 07:34:41;;;;;;;27.40;11.60;;;0.90;99.90;;;;;;4931488;28;20111;-93
2021/01/13 07:37:58;;;;;;;;;;;;;;;;;;;;;
2021/01/13 07:41:34;;;;;;;30.77;13.88;;;0.60;99.90;;;;;;5018331;28;20029;-93
2021/01/13 07:48:53;;;;;;;31.50;12.90;;;0.70;99.90;;;;;;4975410;28;20066;-93
2021/01/13 07:51:37;;;;;;;39.45;11.73;;;1.00;99.90;;;;;;4915999;29;20036;-94
2021/01/13 07:54:56;;;;;;;29.77;11.88;;;1.20;99.90;;;;;;4939176;29;20036;-94
2021/01/13 08:20:20;;;;;;;;;;;;;;;;;;;;;
2021/01/13 08:31:15;;;;;;;;;;;;;;;;;;;;;
2021/01/13 08:42:12;;;;;;;18.85;8.20;;;1.10;99.90;;;;;;4894756;29;20039;-92
2021/01/13 08:45:59;;;;;;;14.77;8.10;;;1.00;99.90;;;;;;4891242;29;20063;-91
2021/01/13 09:11:44;;;;;;;13.32;7.63;;;1.10;99.90;;;;;;4974799;23;20656;-71
2021/01/13 09:14:20;;;;;;;20.50;8.50;;;0.90;99.90;;;;;;5010093;28;20524;-71
2021/01/13 09:16:57;;;;;;;26.85;10.15;;;0.80;99.90;;;;;;4992704;28;20095;-72
2021/01/13 09:19:39;;;;;;;23.52;10.73;;;0.90;99.90;;;;;;5009989;28;20065;-72
2021/01/13 09:22:09;;;;;;;26.83;11.52;;;1.10;99.90;;;;;;4992337;28;20018;-71
2021/01/13 09:24:36;;;;;;;30.95;11.15;;;1.10;99.90;;;;;;4991508;28;20477;-72
2021/01/13 09:27:03;;;;;;;15.73;9.73;;;1.10;99.90;;;;;;5010043;28;20026;-72
2021/01/13 09:29:50;;;;;;;19.42;10.27;;;1.10;99.90;;;;;;4990414;28;20030;-72
2021/01/13 09:32:18;;;;;;;26.33;11.32;;;1.00;99.90;;;;;;4990671;28;20030;-72
2021/01/13 09:34:48;;;;;;;27.05;10.15;;;1.30;99.90;;;;;;4989817;28;20036;-74
2021/01/13 09:37:15;;;;;;;16.98;9.57;;;1.70;99.90;;;;;;4992381;28;20026;-74
2021/01/13 09:39:55;;;;;;;30.35;12.90;;;1.60;99.90;;;;;;5009602;28;20022;-74
2021/01/13 09:42:23;;;;;;;18.48;9.82;;;1.50;99.90;;;;;;4991852;28;20026;-74
2021/01/13 09:45:00;;;;;;;22.30;9.05;;;1.50;99.90;;;;;;4992552;28;20029;-72
2021/01/13 09:47:27;;;;;;;23.40;10.15;;;1.60;99.90;;;;;;4995521;28;20029;-72
2021/01/13 09:49:57;;;;;;;29.33;9.80;;;1.70;99.90;;;;;;4978868;28;20504;-71
2021/01/13 09:52:36;;;;;;;28.00;8.90;;;2.00;99.90;;;;;;5013193;28;20022;-72
2021/01/13 09:55:08;;;;;;;24.88;9.75;;;2.20;99.90;;;;;;4995702;28;20500;-72
2021/01/13 09:57:35;;;;;;;30.88;12.77;;;2.30;98.30;;;;;;4994836;28;20401;-73
2021/01/13 10:00:13;;;;;;;37.70;12.82;;;2.90;98.00;;;;;;4995675;28;20026;-72
2021/01/13 10:02:40;;;;;;;39.35;15.45;;;3.40;94.80;;;;;;4981261;28;20596;-72
2021/01/13 10:05:07;;;;;;;23.45;11.02;;;4.00;94.10;;;;;;5013124;28;20076;-71
2021/01/13 10:07:37;;;;;;;17.25;8.02;;;4.40;90.10;;;;;;5012997;28;20022;-72
2021/01/13 10:10:06;;;;;;;16.27;8.15;;;5.00;87.10;;;;;;4978588;28;20025;-71
2021/01/13 10:12:45;;;;;;;14.02;6.80;;;5.40;84.60;;;;;;4995403;28;20030;-72
2021/01/13 10:15:13;;;;;;;15.68;5.63;;;5.60;83.30;;;;;;4995144;28;20029;-69
2021/01/13 10:17:41;;;;;;;23.30;8.55;;;5.90;84.20;;;;;;5008554;28;20084;-71
2021/01/13 10:20:18;;;;;;;14.85;7.38;;;5.80;83.10;;;;;;5012408;28;20068;-71
2021/01/13 10:22:45;;;;;;;24.27;7.95;;;6.80;81.10;;;;;;4994478;28;20116;-72
2021/01/13 10:25:23;;;;;;;38.30;13.60;;;6.80;78.00;;;;;;5012020;28;20041;-70
2021/01/13 10:27:48;;;;;;;15.73;8.13;;;6.40;78.10;;;;;;5012702;28;20034;-71
2021/01/13 10:30:15;;;;;;;22.48;9.30;;;5.40;80.30;;;;;;5012792;28;20037;-73
2021/01/13 10:32:55;;;;;;;35.10;13.38;;;4.90;83.00;;;;;;4994344;28;20429;-72
2021/01/13 10:35:23;;;;;;;29.85;11.95;;;4.60;81.90;;;;;;5009203;28;20048;-74
2021/01/13 10:37:52;;;;;;;14.95;8.32;;;4.40;85.40;;;;;;5011905;28;20473;-74
2021/01/13 10:40:19;;;;;;;37.42;8.98;;;4.40;86.30;;;;;;4994668;28;20316;-74
2021/01/13 10:42:48;;;;;;;20.50;7.70;;;4.10;86.90;;;;;;4993766;28;20026;-74
2021/01/13 10:45:16;;;;;;;18.05;8.98;;;3.90;87.60;;;;;;5011476;28;20481;-74
2021/01/13 10:47:55;;;;;;;28.83;9.23;;;3.60;87.40;;;;;;4976722;28;20119;-74
2021/01/13 10:50:43;;;;;;;13.70;9.10;;;3.30;90.70;;;;;;5003464;28;20029;-74
2021/01/13 10:53:09;;;;;;;10.00;6.38;;;2.80;90.90;;;;;;5011939;28;20465;-74
2021/01/13 10:55:44;;;;;;;20.17;7.57;;;2.60;90.70;;;;;;4992705;28;20053;-74
2021/01/13 10:58:13;;;;;;;15.93;6.95;;;2.70;91.60;;;;;;4993494;28;20076;-74
2021/01/13 11:00:39;;;;;;;23.17;8.50;;;2.60;92.40;;;;;;5010776;28;20433;-74
2021/01/13 11:03:05;;;;;;;22.88;7.78;;;2.50;92.50;;;;;;5011278;28;20022;-74
2021/01/13 11:05:34;;;;;;;15.65;6.50;;;2.60;92.70;;;;;;4993203;28;20028;-74
2021/01/13 11:08:03;;;;;;;15.90;5.75;;;2.70;92.70;;;;;;4993619;28;20034;-74
2021/01/13 11:10:29;;;;;;;16.08;5.78;;;2.80;93.20;;;;;;4992916;28;20041;-74
2021/01/13 11:13:01;;;;;;;13.55;5.97;;;2.60;92.50;;;;;;4993541;28;20028;-74
2021/01/13 11:15:28;;;;;;;8.30;5.30;;;2.50;92.80;;;;;;4988891;28;20034;-74
2021/01/13 11:17:58;;;;;;;17.90;5.82;;;2.50;92.40;;;;;;5010586;28;20045;-74
2021/01/13 11:20:32;;;;;;;10.98;5.05;;;2.80;92.90;;;;;;5010977;28;20026;-74
2021/01/13 11:23:02;;;;;;;14.63;5.32;;;2.90;92.30;;;;;;5010268;28;20084;-74
2021/01/13 11:25:36;;;;;;;16.70;5.13;;;2.90;92.20;;;;;;4992533;28;20026;-74
2021/01/13 11:28:07;;;;;;;15.45;5.88;;;2.90;92.10;;;;;;5010887;28;20022;-74
2021/01/13 11:30:38;;;;;;;22.90;9.15;;;2.90;92.00;;;;;;5008865;28;20029;-74
2021/01/13 11:33:08;;;;;;;11.82;4.00;;;2.60;92.50;;;;;;4987844;28;20038;-74
2021/01/13 11:35:39;;;;;;;14.30;6.18;;;2.50;93.20;;;;;;5010272;28;20117;-74
2021/01/13 11:38:05;;;;;;;11.80;5.65;;;2.40;93.50;;;;;;4976830;28;20022;-76
2021/01/13 11:40:44;;;;;;;12.52;4.80;;;2.20;93.30;;;;;;5009870;28;20088;-76
2021/01/13 11:43:43;;;;;;;12.10;4.70;;;2.10;93.80;;;;;;5010365;28;20022;-74
2021/01/13 11:46:28;;;;;;;9.00;3.65;;;2.20;93.10;;;;;;4990367;28;20084;-74
2021/01/13 11:49:32;;;;;;;16.90;6.50;;;2.20;92.90;;;;;;5006783;28;20109;-74
2021/01/13 11:51:59;;;;;;;10.55;4.30;;;2.40;92.90;;;;;;4910863;29;20556;-74
2021/01/13 11:54:32;;;;;;;7.22;3.75;;;2.10;92.60;;;;;;4957525;28;20108;-74
2021/01/13 11:57:17;;;;;;;9.70;4.78;;;2.00;92.70;;;;;;4988052;28;20053;-74
2021/01/13 11:59:43;;;;;;;12.27;4.68;;;2.10;93.10;;;;;;4992611;28;20117;-74
2021/01/13 12:02:18;;;;;;;9.30;4.32;;;2.10;93.00;;;;;;4992125;28;20105;-74
2021/01/13 12:04:46;;;;;;;7.60;4.53;;;1.90;92.70;;;;;;4976345;28;20114;-74
2021/01/13 12:07:12;;;;;;;8.90;4.28;;;1.90;93.30;;;;;;4992012;28;20093;-74
2021/01/13 12:09:38;;;;;;;18.55;4.55;;;2.10;93.10;;;;;;4992066;28;20120;-74
2021/01/13 12:12:05;;;;;;;10.80;4.10;;;2.30;92.40;;;;;;4992391;28;20471;-74
2021/01/13 12:14:41;;;;;;;9.50;4.28;;;2.30;92.40;;;;;;5009883;28;20120;-74
2021/01/13 12:17:07;;;;;;;10.65;4.63;;;2.40;92.30;;;;;;5010889;28;20045;-74
2021/01/13 12:19:40;;;;;;;9.50;3.83;;;2.50;91.80;;;;;;4976146;28;20022;-74
2021/01/13 12:22:06;;;;;;;10.75;3.67;;;3.10;90.50;;;;;;4988495;28;20026;-74
2021/01/13 12:24:44;;;;;;;9.75;3.42;;;3.50;86.90;;;;;;4991747;28;20026;-74
2021/01/13 12:27:24;;;;;;;4.22;3.10;;;3.70;84.90;;;;;;5008915;28;20030;-74
2021/01/13 12:30:05;;;;;;;10.38;4.10;;;3.80;83.10;;;;;;5008606;28;20355;-74
2021/01/13 12:32:32;;;;;;;16.27;4.93;;;3.90;82.20;;;;;;5019734;23;20049;-76
2021/01/13 12:34:58;;;;;;;21.23;6.55;;;3.70;83.40;;;;;;5026878;28;20036;-76
2021/01/13 12:37:23;;;;;;;11.43;5.03;;;3.50;84.00;;;;;;5027460;28;20476;-76
2021/01/13 12:39:56;;;;;;;11.60;5.40;;;3.30;86.90;;;;;;5009536;28;20061;-76
2021/01/13 12:42:30;;;;;;;13.63;5.32;;;3.10;87.10;;;;;;5009205;28;20112;-76
2021/01/13 12:44:57;;;;;;;13.15;5.22;;;2.80;88.40;;;;;;5009812;28;20087;-76
2021/01/13 12:47:27;;;;;;;6.55;4.22;;;2.50;87.90;;;;;;5026448;28;20095;-76
2021/01/13 12:49:54;;;;;;;14.20;7.95;;;2.40;89.30;;;;;;5029700;28;20029;-76
2021/01/13 12:52:20;;;;;;;10.95;5.15;;;2.30;90.10;;;;;;5028621;28;20056;-75
2021/01/13 12:54:46;;;;;;;13.18;4.63;;;2.10;90.60;;;;;;5029022;28;20175;-75
2021/01/13 12:57:12;;;;;;;15.25;5.03;;;2.10;90.80;;;;;;5029041;28;20245;-76
2021/01/13 12:59:42;;;;;;;7.78;5.30;;;2.10;91.00;;;;;;5010738;28;20041;-76
2021/01/13 13:02:09;;;;;;;11.07;5.60;;;2.10;91.50;;;;;;5029381;28;20026;-75
2021/01/13 13:04:34;;;;;;;13.82;4.97;;;2.00;91.50;;;;;;5028356;28;20535;-76
2021/01/13 13:07:00;;;;;;;8.18;4.90;;;2.10;92.20;;;;;;5011188;28;20029;-76
2021/01/13 13:09:26;;;;;;;9.70;4.30;;;2.00;91.80;;;;;;5028462;28;20025;-76
2021/01/13 13:11:54;;;;;;;5.72;3.65;;;2.00;92.20;;;;;;5028980;28;20492;-78
2021/01/13 13:14:20;;;;;;;11.60;4.70;;;2.00;92.00;;;;;;5028284;28;20513;-78
2021/01/13 13:16:46;;;;;;;10.30;5.88;;;2.00;91.80;;;;;;5029149;28;20029;-78
2021/01/13 13:19:13;;;;;;;13.70;5.68;;;1.80;92.00;;;;;;5011393;28;20056;-77
2021/01/13 13:21:38;;;;;;;11.63;6.20;;;1.70;92.90;;;;;;5032580;28;20022;-76
2021/01/13 13:24:05;;;;;;;13.70;5.70;;;1.60;93.20;;;;;;5032994;28;20071;-76
2021/01/13 13:26:30;;;;;;;9.40;6.03;;;1.70;93.30;;;;;;5032301;28;20029;-76
2021/01/13 13:28:56;;;;;;;14.40;6.32;;;1.60;93.80;;;;;;5032795;28;20571;-76
2021/01/13 13:31:23;;;;;;;14.18;7.57;;;1.60;94.00;;;;;;5031942;28;20393;-76
2021/01/13 13:33:49;;;;;;;11.45;5.40;;;1.60;94.50;;;;;;5031715;28;20041;-76
2021/01/13 13:36:16;;;;;;;14.45;5.75;;;1.60;94.70;;;;;;5032647;28;20022;-76
2021/01/13 13:38:43;;;;;;;10.85;6.72;;;1.60;94.60;;;;;;4997931;28;20051;-76
2021/01/13 13:41:09;;;;;;;9.02;6.28;;;1.60;94.80;;;;;;5014914;28;20057;-76
2021/01/13 13:43:36;;;;;;;10.63;5.53;;;1.80;94.60;;;;;;5032255;28;20022;-75
2021/01/13 13:46:02;;;;;;;15.25;5.20;;;1.60;94.00;;;;;;5014374;28;20079;-76
2021/01/13 13:48:28;;;;;;;14.02;5.07;;;1.70;94.60;;;;;;5012270;28;20064;-76
2021/01/13 13:50:59;;;;;;;16.80;7.28;;;1.80;94.10;;;;;;5014920;28;20029;-76
2021/01/13 13:53:25;;;;;;;27.95;10.15;;;1.80;93.80;;;;;;5014593;28;20037;-76
2021/01/13 13:55:51;;;;;;;8.15;4.70;;;1.90;93.50;;;;;;5031804;28;20029;-76
2021/01/13 13:58:17;;;;;;;14.90;5.82;;;1.70;92.60;;;;;;4998007;28;20021;-76
2021/01/13 14:00:43;;;;;;;8.25;4.82;;;1.60;92.50;;;;;;5031583;28;20099;-76
2021/01/13 14:03:08;;;;;;;6.93;4.15;;;1.60;93.40;;;;;;5032250;28;20022;-76
2021/01/13 14:05:34;;;;;;;8.73;4.75;;;1.70;93.20;;;;;;5031643;28;20486;-76
2021/01/13 14:08:00;;;;;;;8.60;4.85;;;1.80;93.60;;;;;;5032245;28;20032;-76
2021/01/13 14:10:26;;;;;;;10.73;5.28;;;1.80;92.80;;;;;;5014757;28;20044;-76
2021/01/13 14:12:52;;;;;;;8.40;4.93;;;1.70;92.50;;;;;;5013952;28;20026;-76
2021/01/13 14:15:18;;;;;;;9.90;4.28;;;1.50;93.00;;;;;;5013931;28;20511;-76
2021/01/13 14:17:45;;;;;;;11.10;5.18;;;1.60;93.50;;;;;;5031688;28;20029;-76
2021/01/13 14:20:11;;;;;;;10.20;4.63;;;1.40;94.10;;;;;;5031947;28;20040;-76
2021/01/13 14:22:41;;;;;;;6.32;4.47;;;1.50;94.40;;;;;;5031353;28;20021;-76
2021/01/13 14:25:09;;;;;;;7.88;4.60;;;1.60;94.40;;;;;;5031657;28;20080;-76
2021/01/13 14:27:35;;;;;;;7.30;4.15;;;1.70;94.60;;;;;;5031517;28;20026;-76
2021/01/13 14:30:02;;;;;;;7.82;4.60;;;1.80;95.10;;;;;;5031687;28;20022;-76
2021/01/13 14:32:28;;;;;;;10.07;5.50;;;1.90;94.20;;;;;;5012658;28;20038;-76
2021/01/13 14:34:54;;;;;;;10.18;6.00;;;1.80;94.30;;;;;;5013618;28;20029;-76
2021/01/13 14:37:20;;;;;;;12.35;6.28;;;1.70;94.10;;;;;;5013974;28;20599;-76
2021/01/13 14:39:45;;;;;;;15.23;7.32;;;1.80;95.00;;;;;;5030664;28;20037;-77
2021/01/13 14:42:12;;;;;;;14.50;7.20;;;1.80;95.10;;;;;;5031688;28;20029;-78
2021/01/13 14:44:39;;;;;;;10.65;5.97;;;1.90;95.30;;;;;;5030992;28;20104;-78
2021/01/13 14:47:09;;;;;;;15.32;7.70;;;1.80;95.10;;;;;;5013968;28;20405;-78
2021/01/13 14:49:35;;;;;;;20.75;9.18;;;1.60;95.90;;;;;;5013676;28;20057;-78
2021/01/13 14:52:08;;;;;;;15.57;6.43;;;1.70;97.00;;;;;;5030852;28;20415;-78
2021/01/13 14:54:34;;;;;;;22.17;9.32;;;1.90;96.80;;;;;;5030904;28;20120;-78
2021/01/13 14:57:08;;;;;;;9.35;5.20;;;2.00;96.40;;;;;;5031040;28;20481;-78
2021/01/13 14:59:35;;;;;;;10.60;6.65;;;1.90;96.30;;;;;;5031141;28;20053;-77
2021/01/13 15:02:00;;;;;;;8.90;5.40;;;1.80;96.20;;;;;;5030726;28;20021;-76
2021/01/13 15:04:27;;;;;;;11.38;5.85;;;1.80;97.10;;;;;;5030908;28;20079;-76
2021/01/13 15:06:55;;;;;;;14.65;6.85;;;1.70;97.30;;;;;;5030932;28;20033;-76
2021/01/13 15:09:20;;;;;;;16.15;7.75;;;1.60;98.30;;;;;;5030509;28;20028;-76
2021/01/13 15:11:46;;;;;;;12.77;6.80;;;1.50;98.60;;;;;;5028774;28;20033;-76
2021/01/13 15:14:12;;;;;;;14.38;7.53;;;1.40;99.90;;;;;;5012564;28;20029;-75
2021/01/13 15:16:37;;;;;;;14.05;6.22;;;1.50;99.90;;;;;;5030760;28;20076;-76
2021/01/13 15:19:03;;;;;;;16.98;6.93;;;1.50;99.90;;;;;;5012571;28;20026;-76
2021/01/13 15:21:29;;;;;;;17.20;8.07;;;1.50;99.90;;;;;;4996155;28;20017;-76
2021/01/13 15:23:55;;;;;;;17.45;7.93;;;1.40;99.90;;;;;;5030827;28;20029;-76
2021/01/13 15:26:20;;;;;;;19.98;9.70;;;1.50;99.90;;;;;;5012071;28;20022;-76
2021/01/13 15:28:46;;;;;;;19.15;8.30;;;1.50;99.90;;;;;;5030424;28;20431;-76
2021/01/13 15:31:12;;;;;;;13.93;7.05;;;1.60;99.90;;;;;;4995373;28;20120;-76
2021/01/13 15:33:38;;;;;;;16.35;6.55;;;1.80;99.90;;;;;;5030241;28;20083;-76
2021/01/13 15:36:04;;;;;;;9.63;6.50;;;1.90;99.90;;;;;;5029458;28;20036;-76
2021/01/13 15:38:30;;;;;;;13.57;6.32;;;1.90;99.90;;;;;;5030312;28;20112;-76
2021/01/13 15:40:58;;;;;;;10.23;6.57;;;1.80;99.90;;;;;;5029996;28;20104;-76
2021/01/13 15:43:25;;;;;;;13.23;6.68;;;1.60;99.90;;;;;;5012343;28;20039;-76
2021/01/13 15:45:50;;;;;;;12.10;7.05;;;1.60;99.90;;;;;;5007480;28;20473;-76
2021/01/13 15:48:17;;;;;;;11.48;6.95;;;1.70;99.90;;;;;;5029468;28;20032;-76
2021/01/13 15:50:43;;;;;;;10.38;6.03;;;1.50;99.90;;;;;;5012434;28;20029;-76
2021/01/13 15:53:09;;;;;;;12.38;6.10;;;1.60;99.90;;;;;;5029769;28;20100;-76
2021/01/13 15:55:39;;;;;;;15.65;6.97;;;1.50;99.90;;;;;;5029902;28;20036;-75
2021/01/13 15:58:12;;;;;;;21.95;6.60;;;1.60;99.90;;;;;;5029022;28;20025;-76
2021/01/13 16:00:38;;;;;;;9.32;5.63;;;1.70;99.90;;;;;;5029876;28;20034;-76
2021/01/13 16:03:04;;;;;;;16.38;5.82;;;1.50;99.90;;;;;;5029946;28;20049;-76
2021/01/13 16:05:30;;;;;;;13.00;5.63;;;1.40;99.90;;;;;;5029158;28;20021;-76
2021/01/13 16:07:56;;;;;;;8.38;6.25;;;1.40;99.90;;;;;;5030494;28;20032;-75
2021/01/13 16:10:22;;;;;;;12.13;5.70;;;1.50;99.90;;;;;;5006929;28;20022;-76
2021/01/13 16:12:54;;;;;;;12.35;6.18;;;1.40;99.90;;;;;;5030135;28;20030;-76
2021/01/13 16:15:21;;;;;;;12.20;6.05;;;1.30;99.90;;;;;;5028965;28;20542;-76
2021/01/13 16:17:50;;;;;;;18.95;8.32;;;1.30;99.90;;;;;;5029825;28;20035;-76
2021/01/13 16:20:17;;;;;;;18.90;9.63;;;1.30;99.90;;;;;;5011536;28;20030;-76
2021/01/13 16:22:43;;;;;;;10.75;6.10;;;1.30;99.90;;;;;;5011473;28;20519;-76
2021/01/13 16:25:12;;;;;;;19.38;6.65;;;1.50;99.90;;;;;;5029314;28;20077;-76